createdAt,value
2018-07-03T00:00:36.267Z,2.33
2018-07-03T00:03:05.115Z,1.97
2018-07-03T00:05:33.870Z,2.13
2018-07-03T00:08:02.523Z,2.20
2018-07-03T00:10:31.289Z,2.00
2018-07-03T00:12:59.977Z,2.13
2018-07-03T00:15:28.636Z,2.20
2018-07-03T00:17:57.316Z,1.90
2018-07-03T00:20:25.921Z,1.90
2018-07-03T00:22:54.579Z,1.93
2018-07-03T00:25:23.200Z,1.90
2018-07-03T00:27:51.923Z,1.87
2018-07-03T00:30:20.566Z,2.10
2018-07-03T00:32:49.255Z,2.10
2018-07-03T00:35:18.034Z,1.90
2018-07-03T00:37:46.685Z,2.40
2018-07-03T00:40:15.356Z,1.93
2018-07-03T00:42:44.121Z,1.87
2018-07-03T00:45:12.883Z,2.07
2018-07-03T00:47:41.659Z,2.10
2018-07-03T00:50:10.390Z,1.93
2018-07-03T00:52:39.147Z,2.00
2018-07-03T00:55:07.825Z,1.63
2018-07-03T00:57:36.407Z,1.83
2018-07-03T01:00:16.109Z,2.00
2018-07-03T01:02:44.786Z,1.70
2018-07-03T01:05:13.425Z,1.60
2018-07-03T01:07:42.127Z,1.83
2018-07-03T01:10:10.849Z,2.30
2018-07-03T01:12:39.612Z,1.90
2018-07-03T01:15:08.306Z,1.73
2018-07-03T01:17:36.899Z,1.70
2018-07-03T01:20:05.554Z,1.80
2018-07-03T01:22:34.205Z,2.10
2018-07-03T01:25:02.801Z,1.87
2018-07-03T01:27:31.430Z,1.93
2018-07-03T01:30:00.112Z,1.70
2018-07-03T01:32:28.780Z,2.07
2018-07-03T01:34:57.068Z,2.03
2018-07-03T01:37:25.756Z,1.90
2018-07-03T01:39:54.448Z,2.00
2018-07-03T01:42:23.123Z,1.70
2018-07-03T01:44:51.782Z,1.70
2018-07-03T01:47:20.446Z,1.90
2018-07-03T01:49:49.120Z,1.90
2018-07-03T01:52:17.845Z,1.80
2018-07-03T01:54:46.186Z,1.90
2018-07-03T01:57:14.784Z,1.90
2018-07-03T01:59:43.475Z,1.90
2018-07-03T02:02:12.139Z,1.90
2018-07-03T02:04:40.789Z,2.00
2018-07-03T02:07:09.478Z,1.63
2018-07-03T02:09:38.148Z,1.70
2018-07-03T02:12:20.142Z,1.80
2018-07-03T02:14:48.813Z,1.93
2018-07-03T02:17:17.498Z,2.10
2018-07-03T02:19:46.187Z,1.83
2018-07-03T02:22:14.962Z,1.80
2018-07-03T02:24:43.658Z,1.93
2018-07-03T02:27:12.423Z,1.90
2018-07-03T02:29:41.104Z,1.80
2018-07-03T02:32:09.777Z,1.83
2018-07-03T02:34:38.458Z,1.90
2018-07-03T02:37:07.162Z,1.80
2018-07-03T02:39:35.833Z,1.90
2018-07-03T02:42:04.434Z,1.83
2018-07-03T02:44:33.068Z,2.00
2018-07-03T02:47:01.704Z,1.70
2018-07-03T02:49:30.518Z,3.83
2018-07-03T02:51:59.227Z,1.90
2018-07-03T02:54:28.019Z,1.87
2018-07-03T02:56:56.753Z,1.77
2018-07-03T02:59:25.459Z,2.10
2018-07-03T03:01:54.170Z,1.93
2018-07-03T03:04:22.952Z,1.87
2018-07-03T03:06:51.618Z,2.10
2018-07-03T03:09:20.339Z,2.10
2018-07-03T03:11:49.034Z,1.90
2018-07-03T03:14:17.753Z,2.23
2018-07-03T03:16:46.489Z,2.43
2018-07-03T03:19:15.086Z,2.73
2018-07-03T03:21:43.824Z,2.20
2018-07-03T03:24:12.500Z,2.00
2018-07-03T03:26:41.228Z,1.87
2018-07-03T03:29:09.918Z,2.00
2018-07-03T03:31:38.599Z,2.00
2018-07-03T03:34:07.368Z,1.80
2018-07-03T03:36:41.180Z,2.23
2018-07-03T03:39:09.941Z,1.90
2018-07-03T03:41:38.639Z,1.90
2018-07-03T03:44:07.303Z,2.30
2018-07-03T03:46:35.954Z,2.10
2018-07-03T03:49:04.915Z,1.97
2018-07-03T03:51:33.569Z,2.00
2018-07-03T03:54:02.279Z,2.20
2018-07-03T03:56:30.975Z,2.40
2018-07-03T03:58:59.690Z,2.00
2018-07-03T04:01:28.426Z,2.30
2018-07-03T04:03:57.181Z,2.10
2018-07-03T04:06:25.856Z,2.30
2018-07-03T04:08:54.446Z,2.37
2018-07-03T04:11:23.201Z,1.90
2018-07-03T04:13:51.877Z,2.20
2018-07-03T04:16:20.679Z,2.23
2018-07-03T04:18:49.386Z,2.23
2018-07-03T04:21:18.085Z,2.20
2018-07-03T04:23:46.786Z,2.27
2018-07-03T04:26:15.479Z,2.43
2018-07-03T04:28:44.112Z,2.50
2018-07-03T04:31:12.795Z,2.47
2018-07-03T04:33:41.486Z,2.53
2018-07-03T04:36:10.236Z,2.63
2018-07-03T04:47:35.236Z,2.80
2018-07-03T04:50:03.981Z,2.67
2018-07-03T04:52:32.801Z,2.20
2018-07-03T04:55:01.461Z,2.50
2018-07-03T04:57:30.104Z,2.70
2018-07-03T04:59:58.733Z,2.80
2018-07-03T05:02:27.389Z,2.80
2018-07-03T05:04:56.063Z,3.00
2018-07-03T05:07:24.709Z,3.53
2018-07-03T05:09:53.466Z,3.30
2018-07-03T05:12:22.160Z,3.30
2018-07-03T05:14:50.883Z,3.30
2018-07-03T05:17:19.577Z,2.90
2018-07-03T05:19:48.213Z,2.80
2018-07-03T05:22:16.953Z,3.00
2018-07-03T05:24:45.758Z,3.30
2018-07-03T05:27:14.360Z,3.37
2018-07-03T05:29:43.046Z,3.10
2018-07-03T05:32:12.150Z,3.40
2018-07-03T05:34:40.841Z,3.47
2018-07-03T05:37:09.503Z,3.23
2018-07-03T05:39:38.206Z,3.20
2018-07-03T05:42:06.977Z,2.80
2018-07-03T05:44:35.574Z,3.10
2018-07-03T05:47:04.314Z,2.97
2018-07-03T05:49:33.045Z,3.07
2018-07-03T05:52:01.803Z,2.93
2018-07-03T05:54:30.518Z,3.30
2018-07-03T05:56:59.185Z,2.90
2018-07-03T05:59:27.885Z,3.50
2018-07-03T06:01:56.549Z,2.97
2018-07-03T06:04:25.302Z,3.07
2018-07-03T06:06:54.017Z,2.80
2018-07-03T06:09:23.167Z,2.80
2018-07-03T06:11:51.810Z,3.00
2018-07-03T06:14:20.651Z,3.30
2018-07-03T06:16:53.542Z,3.20
2018-07-03T06:19:22.693Z,2.73
2018-07-03T06:21:52.050Z,3.10
2018-07-03T06:24:20.700Z,3.00
2018-07-03T06:26:49.475Z,2.70
2018-07-03T06:35:28.085Z,2.87
2018-07-03T06:37:56.770Z,2.60
2018-07-03T06:40:25.424Z,2.50
2018-07-03T06:42:54.290Z,2.40
2018-07-03T06:45:23.046Z,2.67
2018-07-03T06:47:51.539Z,2.40
2018-07-03T06:50:20.226Z,2.87
2018-07-03T06:52:48.945Z,2.67
2018-07-03T06:55:17.522Z,2.40
2018-07-03T06:57:46.259Z,2.37
2018-07-03T07:00:14.938Z,2.43
2018-07-03T07:02:43.693Z,2.60
2018-07-03T07:05:12.285Z,2.30
2018-07-03T07:07:41.050Z,2.67
2018-07-03T07:10:09.785Z,2.73
2018-07-03T07:12:38.565Z,2.17
2018-07-03T07:15:08.095Z,2.70
2018-07-03T07:17:36.798Z,2.33
2018-07-03T07:20:06.156Z,2.30
2018-07-03T07:22:34.855Z,2.33
2018-07-03T07:25:03.578Z,2.30
2018-07-03T07:27:32.138Z,2.10
2018-07-03T07:30:00.811Z,2.20
2018-07-03T07:32:29.595Z,2.00
2018-07-03T07:34:58.382Z,1.90
2018-07-03T07:37:27.141Z,1.70
2018-07-03T07:39:55.826Z,1.80
2018-07-03T07:42:24.170Z,2.10
2018-07-03T07:44:52.896Z,1.77
2018-07-03T07:47:22.098Z,1.70
2018-07-03T07:49:50.807Z,1.57
2018-07-03T07:52:19.475Z,1.73
2018-07-03T07:54:48.216Z,1.30
2018-07-03T07:57:16.868Z,1.47
2018-07-03T07:59:45.594Z,1.30
2018-07-03T08:02:14.286Z,1.70
2018-07-03T08:04:42.958Z,1.30
2018-07-03T08:07:11.657Z,1.40
2018-07-03T08:09:40.353Z,1.37
2018-07-03T08:12:09.038Z,1.47
2018-07-03T08:14:37.277Z,1.43
2018-07-03T08:17:06.002Z,1.30
2018-07-03T08:19:34.592Z,1.30
2018-07-03T08:22:02.852Z,1.30
2018-07-03T08:24:31.584Z,1.60
2018-07-03T08:27:00.329Z,1.33
2018-07-03T08:29:28.984Z,1.30
2018-07-03T08:31:57.636Z,1.27
2018-07-03T08:34:26.332Z,1.60
2018-07-03T08:36:55.262Z,1.13
2018-07-03T08:39:23.946Z,1.10
2018-07-03T08:41:52.626Z,1.57
2018-07-03T08:44:21.238Z,1.20
2018-07-03T08:46:49.894Z,1.10
2018-07-03T08:49:18.530Z,1.00
2018-07-03T08:51:47.248Z,1.17
2018-07-03T08:54:16.262Z,1.20
2018-07-03T08:56:44.773Z,1.17
2018-07-03T08:59:13.226Z,1.10
2018-07-03T09:01:41.683Z,1.13
2018-07-03T09:04:10.177Z,1.17
2018-07-03T09:06:38.703Z,1.00
2018-07-03T09:09:09.169Z,1.10
2018-07-03T09:11:37.913Z,1.10
2018-07-03T09:14:07.027Z,1.30
2018-07-03T09:16:35.698Z,1.10
2018-07-03T09:19:04.424Z,1.33
2018-07-03T09:21:33.155Z,1.40
2018-07-03T09:24:01.864Z,1.20
2018-07-03T09:26:30.571Z,1.30
2018-07-03T09:28:59.230Z,1.40
2018-07-03T09:31:28.007Z,1.50
2018-07-03T09:33:56.761Z,1.40
2018-07-03T09:36:25.359Z,1.37
2018-07-03T09:38:53.937Z,1.60
2018-07-03T09:41:22.706Z,1.70
2018-07-03T09:43:51.333Z,1.40
2018-07-03T09:46:20.027Z,1.50
2018-07-03T09:48:48.730Z,1.80
2018-07-03T09:51:17.482Z,1.60
2018-07-03T09:53:46.141Z,1.60
2018-07-03T09:56:14.922Z,1.77
2018-07-03T09:58:43.587Z,1.60
2018-07-03T10:01:17.653Z,1.60
2018-07-03T10:03:46.362Z,1.50
2018-07-03T10:06:15.021Z,1.40
2018-07-03T10:08:43.852Z,1.47
2018-07-03T10:11:12.638Z,1.60
2018-07-03T10:13:41.310Z,1.60
2018-07-03T10:16:10.412Z,1.40
2018-07-03T10:18:39.082Z,1.50
2018-07-03T10:21:08.789Z,1.27
2018-07-03T10:23:37.471Z,1.40
2018-07-03T10:26:05.753Z,1.43
2018-07-03T10:28:34.531Z,1.50
2018-07-03T10:31:03.271Z,1.80
2018-07-03T10:33:31.950Z,1.80
2018-07-03T10:36:00.715Z,1.60
2018-07-03T10:38:29.428Z,1.50
2018-07-03T10:40:58.184Z,1.60
2018-07-03T10:43:26.871Z,1.77
2018-07-03T10:45:55.551Z,1.70
2018-07-03T10:48:24.269Z,1.70
2018-07-03T10:50:52.988Z,2.13
2018-07-03T10:53:21.707Z,1.70
2018-07-03T10:55:50.365Z,2.07
2018-07-03T10:58:18.973Z,2.63
2018-07-03T11:00:47.750Z,2.60
2018-07-03T11:03:16.404Z,2.80
2018-07-03T11:05:45.382Z,2.90
2018-07-03T11:08:14.090Z,2.70
2018-07-03T11:10:42.802Z,2.80
2018-07-03T11:13:11.576Z,3.20
2018-07-03T11:15:40.203Z,3.40
2018-07-03T11:18:08.964Z,3.13
2018-07-03T11:20:37.632Z,3.60
2018-07-03T11:23:06.345Z,3.47
2018-07-03T11:25:35.019Z,3.30
2018-07-03T11:28:03.727Z,3.93
2018-07-03T11:30:32.505Z,3.63
2018-07-03T11:33:01.321Z,3.50
2018-07-03T11:35:30.031Z,4.00
2018-07-03T11:37:58.831Z,3.63
2018-07-03T11:40:27.565Z,3.40
2018-07-03T11:42:56.305Z,3.40
2018-07-03T11:45:24.966Z,3.40
2018-07-03T11:47:53.666Z,3.40
2018-07-03T11:50:22.366Z,3.00
2018-07-03T11:52:51.080Z,3.40
2018-07-03T11:55:19.835Z,3.47
2018-07-03T11:57:48.870Z,3.20
2018-07-03T12:00:18.118Z,3.63
2018-07-03T12:02:46.887Z,3.30
2018-07-03T12:05:15.602Z,4.03
2018-07-03T12:07:44.326Z,3.97
2018-07-03T12:10:12.593Z,4.10
2018-07-03T12:12:41.341Z,4.00
2018-07-03T12:15:10.011Z,4.13
2018-07-03T12:17:38.661Z,4.27
2018-07-03T12:20:07.678Z,3.93
2018-07-03T12:22:36.546Z,3.90
2018-07-03T12:25:04.818Z,4.40
2018-07-03T12:27:33.475Z,4.10
2018-07-03T12:30:02.194Z,4.47
2018-07-03T12:32:30.924Z,4.20
2018-07-03T12:34:59.661Z,3.80
2018-07-03T12:37:28.398Z,4.00
2018-07-03T12:39:57.070Z,3.90
2018-07-03T12:42:25.662Z,3.50
2018-07-03T12:44:54.362Z,3.73
2018-07-03T12:47:23.017Z,3.57
2018-07-03T12:49:51.885Z,3.40
2018-07-03T12:52:20.510Z,3.07
2018-07-03T12:54:49.152Z,3.73
2018-07-03T12:57:17.857Z,3.40
2018-07-03T12:59:46.496Z,3.17
2018-07-03T13:02:15.219Z,3.50
2018-07-03T13:04:43.877Z,3.07
2018-07-03T13:07:12.218Z,3.37
2018-07-03T13:09:41.608Z,3.10
2018-07-03T13:12:10.364Z,3.33
2018-07-03T13:14:38.987Z,3.53
2018-07-03T13:17:07.606Z,3.07
2018-07-03T13:19:36.311Z,3.10
2018-07-03T13:22:05.054Z,3.10
2018-07-03T13:24:33.655Z,3.53
2018-07-03T13:27:02.323Z,3.73
2018-07-03T13:29:31.102Z,3.40
2018-07-03T13:31:59.752Z,3.60
2018-07-03T13:34:28.407Z,3.50
2018-07-03T13:36:57.118Z,3.33
2018-07-03T13:39:25.816Z,3.03
2018-07-03T13:41:54.497Z,2.43
2018-07-03T13:44:23.316Z,3.00
2018-07-03T13:46:52.012Z,3.20
2018-07-03T13:49:20.697Z,2.80
2018-07-03T13:51:49.410Z,2.90
2018-07-03T13:54:18.110Z,3.03
2018-07-03T13:56:46.792Z,2.73
2018-07-03T13:59:15.590Z,3.40
2018-07-03T14:01:44.290Z,2.80
2018-07-03T14:04:13.073Z,3.30
2018-07-03T14:06:41.818Z,3.17
2018-07-03T14:09:10.549Z,2.93
2018-07-03T14:11:39.378Z,3.10
2018-07-03T14:14:08.155Z,3.13
2018-07-03T14:16:36.831Z,3.60
2018-07-03T14:19:05.587Z,3.10
2018-07-03T14:21:34.340Z,3.17
2018-07-03T14:24:03.041Z,3.30
2018-07-03T14:26:31.753Z,3.63
2018-07-03T14:29:00.512Z,3.20
2018-07-03T14:31:29.168Z,3.83
2018-07-03T14:33:57.750Z,3.40
2018-07-03T14:36:26.490Z,3.03
2018-07-03T14:38:55.113Z,3.37
2018-07-03T14:41:23.844Z,3.70
2018-07-03T14:43:52.541Z,3.40
2018-07-03T14:46:21.212Z,3.50
2018-07-03T14:48:49.914Z,3.30
2018-07-03T14:51:18.685Z,3.40
2018-07-03T14:53:47.414Z,3.53
2018-07-03T14:56:16.140Z,3.40
2018-07-03T14:58:44.766Z,3.50
2018-07-03T15:01:13.532Z,3.70
2018-07-03T15:03:42.266Z,4.00
2018-07-03T15:06:11.127Z,3.50
2018-07-03T15:08:39.437Z,3.80
2018-07-03T15:11:08.280Z,3.37
2018-07-03T15:13:36.968Z,3.53
2018-07-03T15:16:05.654Z,3.17
2018-07-03T15:18:39.364Z,3.17
2018-07-03T15:21:07.619Z,3.13
2018-07-03T15:23:36.323Z,3.27
2018-07-03T15:26:04.547Z,3.03
2018-07-03T15:28:33.179Z,3.40
2018-07-03T15:31:01.915Z,3.30
2018-07-03T15:33:30.592Z,3.10
2018-07-03T15:35:59.285Z,3.70
2018-07-03T15:38:28.027Z,3.60
2018-07-03T15:41:03.779Z,3.93
2018-07-03T15:43:32.414Z,3.60
2018-07-03T15:46:01.016Z,3.43
2018-07-03T15:48:29.712Z,3.63
2018-07-03T15:50:58.393Z,3.33
2018-07-03T15:53:27.127Z,3.60
2018-07-03T15:55:55.690Z,3.73
2018-07-03T15:58:24.559Z,3.90
2018-07-03T16:00:53.298Z,3.57
2018-07-03T16:05:39.361Z,3.50
2018-07-03T16:08:29.907Z,3.60
2018-07-03T16:10:58.824Z,3.40
2018-07-03T16:13:27.486Z,3.57
2018-07-03T16:15:56.240Z,7.50
2018-07-03T16:18:26.830Z,3.77
2018-07-03T16:20:55.585Z,3.57
2018-07-03T16:23:24.344Z,3.50
2018-07-03T16:25:53.132Z,3.20
2018-07-03T16:28:21.913Z,3.83
2018-07-03T16:30:50.612Z,4.07
2018-07-03T16:33:19.385Z,13.00
2018-07-03T16:35:48.018Z,4.23
2018-07-03T16:38:16.642Z,6.53
2018-07-03T16:40:45.373Z,4.37
2018-07-03T16:43:14.108Z,3.60
2018-07-03T16:45:42.755Z,3.97
2018-07-03T16:48:11.427Z,3.90
2018-07-03T16:50:40.058Z,3.83
2018-07-03T16:53:19.413Z,4.10
2018-07-03T16:56:06.546Z,3.60
2018-07-03T16:58:40.368Z,3.40
2018-07-03T17:01:08.613Z,3.97
2018-07-03T17:03:37.383Z,3.63
2018-07-03T17:06:07.173Z,3.90
2018-07-03T17:08:35.921Z,3.57
2018-07-03T17:11:04.685Z,3.70
2018-07-03T17:13:33.419Z,3.83
2018-07-03T17:16:02.013Z,3.80
2018-07-03T17:18:31.811Z,3.90
2018-07-03T17:21:00.668Z,3.93
2018-07-03T17:23:29.803Z,4.10
2018-07-03T17:25:58.487Z,3.70
2018-07-03T17:28:27.332Z,3.80
2018-07-03T17:30:55.990Z,3.47
2018-07-03T17:33:24.787Z,3.50
2018-07-03T17:35:56.659Z,3.47
2018-07-03T17:38:25.348Z,3.90
2018-07-03T17:41:05.202Z,3.80
2018-07-03T17:44:17.095Z,4.00
2018-07-03T17:46:45.846Z,3.87
2018-07-03T17:49:14.567Z,3.83
2018-07-03T17:51:43.397Z,3.70
2018-07-03T17:54:12.189Z,4.20
2018-07-03T17:56:41.170Z,4.10
2018-07-03T17:59:09.886Z,3.47
2018-07-03T18:01:38.670Z,3.60
2018-07-03T18:04:07.302Z,3.87
2018-07-03T18:06:35.999Z,4.50
2018-07-03T18:09:07.033Z,4.10
2018-07-03T18:11:35.631Z,4.30
2018-07-03T18:14:04.919Z,3.60
2018-07-03T18:19:39.379Z,4.27
2018-07-03T18:22:08.153Z,4.03
2018-07-03T18:24:36.830Z,4.30
2018-07-03T18:27:05.694Z,4.10
2018-07-03T18:29:34.488Z,4.00
2018-07-03T18:32:03.243Z,3.97
2018-07-03T18:34:33.169Z,4.70
2018-07-03T18:37:01.956Z,4.00
2018-07-03T18:39:30.663Z,4.30
2018-07-03T18:41:59.259Z,3.93
2018-07-03T18:44:28.083Z,4.57
2018-07-03T18:46:56.738Z,4.07
2018-07-03T18:49:25.403Z,4.43
2018-07-03T18:51:54.238Z,4.20
2018-07-03T18:54:23.020Z,4.00
2018-07-03T18:56:52.416Z,4.10
2018-07-03T18:59:21.123Z,3.83
2018-07-03T19:01:50.012Z,4.30
2018-07-03T19:04:18.882Z,4.20
2018-07-03T19:06:47.472Z,4.27
2018-07-03T19:09:36.377Z,4.00
2018-07-03T19:12:05.056Z,4.10
2018-07-03T19:14:39.520Z,4.30
2018-07-03T19:17:08.319Z,4.23
2018-07-03T19:19:37.055Z,4.47
2018-07-03T19:22:06.058Z,4.50
2018-07-03T19:24:34.846Z,4.50
2018-07-03T19:27:03.567Z,4.40
2018-07-03T19:29:32.241Z,4.30
2018-07-03T19:32:00.991Z,4.00
2018-07-03T19:34:29.620Z,4.13
2018-07-03T19:36:58.293Z,4.00
2018-07-03T19:39:26.904Z,3.97
2018-07-03T19:41:55.601Z,4.00
2018-07-03T19:44:24.249Z,4.00
2018-07-03T19:46:53.031Z,4.00
2018-07-03T19:49:21.810Z,4.10
2018-07-03T19:51:50.453Z,3.93
2018-07-03T19:54:21.219Z,4.13
2018-07-03T19:56:49.989Z,4.20
2018-07-03T19:59:18.652Z,4.07
2018-07-03T20:01:47.471Z,4.60
2018-07-03T20:04:16.176Z,4.40
2018-07-03T20:06:44.818Z,4.53
2018-07-03T20:09:14.178Z,4.40
2018-07-03T20:11:43.057Z,3.87
2018-07-03T20:14:11.709Z,4.80
2018-07-03T20:16:40.439Z,4.50
2018-07-03T20:19:13.426Z,4.30
2018-07-03T20:21:43.883Z,4.50
2018-07-03T20:24:12.933Z,4.97
2018-07-03T20:26:42.216Z,4.20
2018-07-03T20:29:11.304Z,4.27
2018-07-03T20:31:39.876Z,5.17
2018-07-03T20:34:08.619Z,4.83
2018-07-03T20:36:37.338Z,5.00
2018-07-03T20:39:08.163Z,4.67
2018-07-03T20:41:36.833Z,4.80
2018-07-03T20:44:05.522Z,4.47
2018-07-03T20:46:34.315Z,4.83
2018-07-03T20:49:03.046Z,5.00
2018-07-03T20:51:31.764Z,4.93
2018-07-03T20:54:00.565Z,4.83
2018-07-03T20:56:29.228Z,5.03
2018-07-03T20:58:57.987Z,4.60
2018-07-03T21:01:27.469Z,4.50
2018-07-03T21:03:56.150Z,5.10
2018-07-03T21:06:24.772Z,4.80
2018-07-03T21:08:53.344Z,5.00
2018-07-03T21:11:22.354Z,5.23
2018-07-03T21:16:56.260Z,5.30
2018-07-03T21:19:24.921Z,4.80
2018-07-03T21:21:54.260Z,5.10
2018-07-03T21:24:22.875Z,5.20
2018-07-03T21:26:51.492Z,4.80
2018-07-03T21:29:20.212Z,4.87
2018-07-03T21:31:48.816Z,4.93
2018-07-03T21:34:17.459Z,4.87
2018-07-03T21:36:46.180Z,5.10
2018-07-03T21:39:14.823Z,5.07
2018-07-03T21:41:43.485Z,4.63
2018-07-03T21:44:12.239Z,4.60
2018-07-03T21:46:40.949Z,4.57
2018-07-03T21:49:09.676Z,4.80
2018-07-03T21:51:38.302Z,5.03
2018-07-03T21:54:07.056Z,4.90
2018-07-03T21:56:35.689Z,6.03
2018-07-03T21:59:04.300Z,4.70
2018-07-03T22:01:32.651Z,5.17
2018-07-03T22:04:01.338Z,4.83
2018-07-03T22:06:29.976Z,4.60
2018-07-03T22:08:58.551Z,5.20
2018-07-03T22:11:27.147Z,4.77
2018-07-03T22:13:55.803Z,4.83
2018-07-03T22:16:24.538Z,5.70
2018-07-03T22:18:53.328Z,4.83
2018-07-03T22:21:21.975Z,4.80
2018-07-03T22:23:50.678Z,4.80
2018-07-03T22:26:20.229Z,4.97
2018-07-03T22:28:48.837Z,4.67
2018-07-03T22:31:17.434Z,5.20
2018-07-03T22:33:46.103Z,5.87
2018-07-03T22:36:14.798Z,5.27
2018-07-03T22:38:43.627Z,5.20
2018-07-03T22:41:12.178Z,5.03
2018-07-03T22:43:40.932Z,4.93
2018-07-03T22:46:09.156Z,5.10
2018-07-03T22:48:37.772Z,5.30
2018-07-03T22:51:06.386Z,5.00
2018-07-03T22:53:35.119Z,5.20
2018-07-03T22:56:03.733Z,4.70
2018-07-03T22:58:32.462Z,5.23
2018-07-03T23:01:01.055Z,5.63
2018-07-03T23:03:29.763Z,5.63
2018-07-03T23:05:58.322Z,5.90
2018-07-03T23:17:13.317Z,6.00
2018-07-03T23:19:41.987Z,5.80
2018-07-03T23:22:10.728Z,5.57
2018-07-03T23:24:39.407Z,5.30
2018-07-03T23:27:08.075Z,5.30
2018-07-03T23:29:36.784Z,5.37
2018-07-03T23:32:05.398Z,5.40
2018-07-03T23:34:34.000Z,5.47
2018-07-03T23:37:02.666Z,5.67
2018-07-03T23:39:31.265Z,5.30
2018-07-03T23:41:59.873Z,6.00
2018-07-03T23:44:28.120Z,5.13
2018-07-03T23:47:08.028Z,5.90
2018-07-03T23:49:48.000Z,4.87
2018-07-03T23:52:27.848Z,5.23
2018-07-03T23:55:07.628Z,5.13
2018-07-03T23:57:41.297Z,5.30
